Iliysk North Airport

Jump to: basic info | weather | comments

Related pages: nearby airports | nearby navaids

Basic information (top)

Location: lon 43.998299, lat 77.139099, elev 2,343 ft / 714 m msl
Status: small_airport

Weather (top)

Current conditions for Almaty Airport 39nm (72km) S (rec'd 2015/03/30 06:30Z):

UAAA 300630Z 36002MPS 0400 R23R/0700N R23L/0750N +SN BKN005 OVC016 M06/M08 Q1026 R23R/4/0240 R23L/4/0537 NOSIG RMK QBB170

Airport forecast for Almaty Airport 39nm (72km) S (rec'd 2015/03/30 06:18Z):

TAF TAF UAAA 300510Z 3006/3106 04005MPS 3000 SHSN BR BKN005 OVC010CB TXM06/3009Z TNM14/3101Z 
      TEMPO 3006/3012 34008MPS 0400 SN FZFG VV003 
      TEMPO 3012/3106 0300 SN FZFG VV002

Latest comments (top)

No comments yet for Iliysk North Airport

More... (top)

See also NOTAMs and nearby airports and navaids, or visit the Iliysk North Airport page at the main OurAirports website..